sensor_id;sensor_type;location;lat;lon;timestamp;temperature;humidity
52963;DHT22;38827;53.024;6.596;2022-07-29T00:00:54;15.20;66.70
52963;DHT22;38827;53.024;6.596;2022-07-29T00:03:19;15.20;67.00
52963;DHT22;38827;53.024;6.596;2022-07-29T00:05:45;15.20;67.10
52963;DHT22;38827;53.024;6.596;2022-07-29T00:08:11;15.20;67.20
52963;DHT22;38827;53.024;6.596;2022-07-29T00:10:37;15.30;67.20
52963;DHT22;38827;53.024;6.596;2022-07-29T00:13:03;15.20;67.30
52963;DHT22;38827;53.024;6.596;2022-07-29T00:15:28;15.20;67.50
52963;DHT22;38827;53.024;6.596;2022-07-29T00:17:54;15.20;67.50
52963;DHT22;38827;53.024;6.596;2022-07-29T00:20:20;15.20;67.60
52963;DHT22;38827;53.024;6.596;2022-07-29T00:22:45;15.20;67.70
52963;DHT22;38827;53.024;6.596;2022-07-29T00:25:12;15.30;67.70
52963;DHT22;38827;53.024;6.596;2022-07-29T00:27:38;15.20;67.80
52963;DHT22;38827;53.024;6.596;2022-07-29T00:30:04;15.20;67.90
52963;DHT22;38827;53.024;6.596;2022-07-29T00:35:00;15.20;68.10
52963;DHT22;38827;53.024;6.596;2022-07-29T00:37:45;15.20;68.10
52963;DHT22;38827;53.024;6.596;2022-07-29T00:40:10;15.20;68.20
52963;DHT22;38827;53.024;6.596;2022-07-29T00:43:02;15.20;68.30
52963;DHT22;38827;53.024;6.596;2022-07-29T00:45:28;15.20;68.20
52963;DHT22;38827;53.024;6.596;2022-07-29T00:47:55;15.10;68.50
52963;DHT22;38827;53.024;6.596;2022-07-29T00:50:21;15.10;68.50
52963;DHT22;38827;53.024;6.596;2022-07-29T00:52:47;15.10;68.60
52963;DHT22;38827;53.024;6.596;2022-07-29T00:55:14;15.10;68.70
52963;DHT22;38827;53.024;6.596;2022-07-29T00:57:41;15.10;68.80
52963;DHT22;38827;53.024;6.596;2022-07-29T01:00:10;15.10;68.90
52963;DHT22;38827;53.024;6.596;2022-07-29T01:02:36;15.10;68.90
52963;DHT22;38827;53.024;6.596;2022-07-29T01:05:04;15.10;69.10
52963;DHT22;38827;53.024;6.596;2022-07-29T01:07:30;15.10;69.20
52963;DHT22;38827;53.024;6.596;2022-07-29T01:09:57;15.10;69.10
52963;DHT22;38827;53.024;6.596;2022-07-29T01:12:25;15.00;68.90
52963;DHT22;38827;53.024;6.596;2022-07-29T01:14:52;15.00;69.00
52963;DHT22;38827;53.024;6.596;2022-07-29T01:17:21;15.00;69.10
52963;DHT22;38827;53.024;6.596;2022-07-29T01:19:56;14.90;69.20
52963;DHT22;38827;53.024;6.596;2022-07-29T01:28:13;15.00;69.10
52963;DHT22;38827;53.024;6.596;2022-07-29T01:30:44;15.00;69.10
52963;DHT22;38827;53.024;6.596;2022-07-29T01:33:13;15.00;69.00
52963;DHT22;38827;53.024;6.596;2022-07-29T01:36:07;15.00;68.90
52963;DHT22;38827;53.024;6.596;2022-07-29T01:38:36;15.00;68.70
52963;DHT22;38827;53.024;6.596;2022-07-29T01:41:08;15.00;68.70
52963;DHT22;38827;53.024;6.596;2022-07-29T01:43:44;15.10;68.40
52963;DHT22;38827;53.024;6.596;2022-07-29T01:46:20;15.10;68.30
52963;DHT22;38827;53.024;6.596;2022-07-29T01:48:53;15.10;68.20
52963;DHT22;38827;53.024;6.596;2022-07-29T01:51:35;15.10;68.00
52963;DHT22;38827;53.024;6.596;2022-07-29T01:54:19;15.10;67.80
52963;DHT22;38827;53.024;6.596;2022-07-29T01:56:49;15.10;67.70
52963;DHT22;38827;53.024;6.596;2022-07-29T01:59:18;15.10;67.70
52963;DHT22;38827;53.024;6.596;2022-07-29T02:01:46;15.10;67.70
52963;DHT22;38827;53.024;6.596;2022-07-29T02:04:12;15.10;67.70
52963;DHT22;38827;53.024;6.596;2022-07-29T02:06:41;15.20;67.80
52963;DHT22;38827;53.024;6.596;2022-07-29T02:09:10;15.20;68.00
52963;DHT22;38827;53.024;6.596;2022-07-29T02:11:38;15.20;67.90
52963;DHT22;38827;53.024;6.596;2022-07-29T02:14:05;15.20;68.00
52963;DHT22;38827;53.024;6.596;2022-07-29T02:16:33;15.20;68.10
52963;DHT22;38827;53.024;6.596;2022-07-29T02:19:02;15.20;68.10
52963;DHT22;38827;53.024;6.596;2022-07-29T02:21:29;15.20;68.00
52963;DHT22;38827;53.024;6.596;2022-07-29T02:23:59;15.20;68.00
52963;DHT22;38827;53.024;6.596;2022-07-29T02:26:25;15.10;68.00
52963;DHT22;38827;53.024;6.596;2022-07-29T02:28:53;15.20;68.00
52963;DHT22;38827;53.024;6.596;2022-07-29T02:31:22;15.10;67.80
52963;DHT22;38827;53.024;6.596;2022-07-29T02:33:48;15.10;68.10
52963;DHT22;38827;53.024;6.596;2022-07-29T02:36:16;15.10;68.00
52963;DHT22;38827;53.024;6.596;2022-07-29T02:38:43;15.10;68.10
52963;DHT22;38827;53.024;6.596;2022-07-29T02:41:28;15.10;68.10
52963;DHT22;38827;53.024;6.596;2022-07-29T02:44:01;15.10;68.10
52963;DHT22;38827;53.024;6.596;2022-07-29T02:46:31;15.10;68.10
52963;DHT22;38827;53.024;6.596;2022-07-29T02:49:10;15.10;68.10
52963;DHT22;38827;53.024;6.596;2022-07-29T02:51:58;15.10;68.10
52963;DHT22;38827;53.024;6.596;2022-07-29T02:54:35;15.10;68.00
52963;DHT22;38827;53.024;6.596;2022-07-29T02:57:09;15.10;68.00
52963;DHT22;38827;53.024;6.596;2022-07-29T02:59:37;15.10;68.00
52963;DHT22;38827;53.024;6.596;2022-07-29T03:02:10;15.10;68.00
52963;DHT22;38827;53.024;6.596;2022-07-29T03:04:40;15.10;67.90
52963;DHT22;38827;53.024;6.596;2022-07-29T03:07:11;15.10;67.90
52963;DHT22;38827;53.024;6.596;2022-07-29T03:09:39;15.10;67.80
52963;DHT22;38827;53.024;6.596;2022-07-29T03:12:07;15.10;67.80
52963;DHT22;38827;53.024;6.596;2022-07-29T03:14:33;15.10;67.70
52963;DHT22;38827;53.024;6.596;2022-07-29T03:17:00;15.10;67.60
52963;DHT22;38827;53.024;6.596;2022-07-29T03:19:26;15.10;67.60
52963;DHT22;38827;53.024;6.596;2022-07-29T03:21:52;15.10;67.50
52963;DHT22;38827;53.024;6.596;2022-07-29T03:24:26;15.10;67.50
52963;DHT22;38827;53.024;6.596;2022-07-29T03:26:52;15.10;67.30
52963;DHT22;38827;53.024;6.596;2022-07-29T03:29:17;15.10;67.40
52963;DHT22;38827;53.024;6.596;2022-07-29T03:31:43;15.10;67.30
52963;DHT22;38827;53.024;6.596;2022-07-29T03:34:09;15.10;67.30
52963;DHT22;38827;53.024;6.596;2022-07-29T03:36:34;15.10;67.30
52963;DHT22;38827;53.024;6.596;2022-07-29T03:39:01;15.10;67.20
52963;DHT22;38827;53.024;6.596;2022-07-29T03:41:28;15.10;67.20
52963;DHT22;38827;53.024;6.596;2022-07-29T03:43:54;15.10;67.10
52963;DHT22;38827;53.024;6.596;2022-07-29T03:46:22;15.10;67.10
52963;DHT22;38827;53.024;6.596;2022-07-29T03:48:52;15.10;66.90
52963;DHT22;38827;53.024;6.596;2022-07-29T03:51:21;15.10;67.00
52963;DHT22;38827;53.024;6.596;2022-07-29T03:53:47;15.00;67.00
52963;DHT22;38827;53.024;6.596;2022-07-29T03:56:15;15.00;66.90
52963;DHT22;38827;53.024;6.596;2022-07-29T03:58:41;15.00;66.90
52963;DHT22;38827;53.024;6.596;2022-07-29T04:01:08;15.00;66.90
52963;DHT22;38827;53.024;6.596;2022-07-29T04:03:35;15.00;66.90
52963;DHT22;38827;53.024;6.596;2022-07-29T04:06:05;15.00;66.80
52963;DHT22;38827;53.024;6.596;2022-07-29T04:08:33;15.00;66.70
52963;DHT22;38827;53.024;6.596;2022-07-29T04:10:59;15.00;66.70
52963;DHT22;38827;53.024;6.596;2022-07-29T04:13:24;15.00;66.50
52963;DHT22;38827;53.024;6.596;2022-07-29T04:15:50;15.00;66.60
52963;DHT22;38827;53.024;6.596;2022-07-29T04:18:16;15.00;66.60
52963;DHT22;38827;53.024;6.596;2022-07-29T04:20:43;15.00;66.50
52963;DHT22;38827;53.024;6.596;2022-07-29T04:23:09;15.10;66.50
52963;DHT22;38827;53.024;6.596;2022-07-29T04:25:38;15.10;66.30
52963;DHT22;38827;53.024;6.596;2022-07-29T04:28:05;15.10;66.30
52963;DHT22;38827;53.024;6.596;2022-07-29T04:30:32;15.10;66.30
52963;DHT22;38827;53.024;6.596;2022-07-29T04:32:59;15.10;66.30
52963;DHT22;38827;53.024;6.596;2022-07-29T04:35:26;15.10;66.30
52963;DHT22;38827;53.024;6.596;2022-07-29T04:37:52;15.10;66.40
52963;DHT22;38827;53.024;6.596;2022-07-29T04:40:18;15.10;66.20
52963;DHT22;38827;53.024;6.596;2022-07-29T04:42:44;15.20;66.20
52963;DHT22;38827;53.024;6.596;2022-07-29T04:45:10;15.20;66.10
52963;DHT22;38827;53.024;6.596;2022-07-29T04:47:35;15.20;66.10
52963;DHT22;38827;53.024;6.596;2022-07-29T04:50:01;15.20;66.00
52963;DHT22;38827;53.024;6.596;2022-07-29T04:52:27;15.20;65.90
52963;DHT22;38827;53.024;6.596;2022-07-29T04:54:52;15.30;66.00
52963;DHT22;38827;53.024;6.596;2022-07-29T04:57:18;15.30;66.00
52963;DHT22;38827;53.024;6.596;2022-07-29T04:59:43;15.30;66.00
52963;DHT22;38827;53.024;6.596;2022-07-29T05:02:09;15.30;65.90
52963;DHT22;38827;53.024;6.596;2022-07-29T05:04:35;15.30;65.90
52963;DHT22;38827;53.024;6.596;2022-07-29T05:07:00;15.40;65.90
52963;DHT22;38827;53.024;6.596;2022-07-29T05:09:26;15.40;65.80
52963;DHT22;38827;53.024;6.596;2022-07-29T05:11:51;15.40;65.90
52963;DHT22;38827;53.024;6.596;2022-07-29T05:14:17;15.40;65.80
52963;DHT22;38827;53.024;6.596;2022-07-29T05:16:43;15.50;65.90
52963;DHT22;38827;53.024;6.596;2022-07-29T05:19:09;15.50;65.70
52963;DHT22;38827;53.024;6.596;2022-07-29T05:21:34;15.50;65.60
52963;DHT22;38827;53.024;6.596;2022-07-29T05:24:00;15.50;65.60
52963;DHT22;38827;53.024;6.596;2022-07-29T05:26:26;15.60;65.70
52963;DHT22;38827;53.024;6.596;2022-07-29T05:28:52;15.60;65.50
52963;DHT22;38827;53.024;6.596;2022-07-29T05:31:19;15.60;65.50
52963;DHT22;38827;53.024;6.596;2022-07-29T05:33:44;15.70;65.10
52963;DHT22;38827;53.024;6.596;2022-07-29T05:36:10;15.70;65.40
52963;DHT22;38827;53.024;6.596;2022-07-29T05:38:39;15.70;65.20
52963;DHT22;38827;53.024;6.596;2022-07-29T05:41:05;15.80;65.10
52963;DHT22;38827;53.024;6.596;2022-07-29T05:43:31;15.80;65.00
52963;DHT22;38827;53.024;6.596;2022-07-29T05:45:57;15.90;64.90
52963;DHT22;38827;53.024;6.596;2022-07-29T05:48:23;15.90;64.90
52963;DHT22;38827;53.024;6.596;2022-07-29T05:50:48;16.00;64.70
52963;DHT22;38827;53.024;6.596;2022-07-29T05:53:14;16.10;64.70
52963;DHT22;38827;53.024;6.596;2022-07-29T05:55:40;16.10;64.40
52963;DHT22;38827;53.024;6.596;2022-07-29T05:58:05;16.20;64.20
52963;DHT22;38827;53.024;6.596;2022-07-29T06:00:31;16.20;64.30
52963;DHT22;38827;53.024;6.596;2022-07-29T06:03:00;16.20;64.40
52963;DHT22;38827;53.024;6.596;2022-07-29T06:05:28;16.30;64.00
52963;DHT22;38827;53.024;6.596;2022-07-29T06:07:54;16.30;63.90
52963;DHT22;38827;53.024;6.596;2022-07-29T06:10:20;16.30;63.90
52963;DHT22;38827;53.024;6.596;2022-07-29T06:12:46;16.30;63.70
52963;DHT22;38827;53.024;6.596;2022-07-29T06:15:11;16.40;63.60
52963;DHT22;38827;53.024;6.596;2022-07-29T06:17:37;16.40;63.60
52963;DHT22;38827;53.024;6.596;2022-07-29T06:20:03;16.50;63.70
52963;DHT22;38827;53.024;6.596;2022-07-29T06:22:29;16.50;63.50
52963;DHT22;38827;53.024;6.596;2022-07-29T06:24:55;16.60;63.40
52963;DHT22;38827;53.024;6.596;2022-07-29T06:27:21;16.60;63.20
52963;DHT22;38827;53.024;6.596;2022-07-29T06:29:47;16.70;63.20
52963;DHT22;38827;53.024;6.596;2022-07-29T06:32:12;16.80;63.20
52963;DHT22;38827;53.024;6.596;2022-07-29T06:34:38;16.90;62.90
52963;DHT22;38827;53.024;6.596;2022-07-29T06:37:07;17.00;62.50
52963;DHT22;38827;53.024;6.596;2022-07-29T06:39:36;17.10;62.20
52963;DHT22;38827;53.024;6.596;2022-07-29T06:42:05;17.20;61.70
52963;DHT22;38827;53.024;6.596;2022-07-29T06:44:31;17.30;61.70
52963;DHT22;38827;53.024;6.596;2022-07-29T06:46:59;17.40;61.30
52963;DHT22;38827;53.024;6.596;2022-07-29T06:49:25;17.40;61.10
52963;DHT22;38827;53.024;6.596;2022-07-29T06:51:52;17.40;61.00
52963;DHT22;38827;53.024;6.596;2022-07-29T06:54:18;17.40;61.30
52963;DHT22;38827;53.024;6.596;2022-07-29T06:56:43;17.40;61.20
52963;DHT22;38827;53.024;6.596;2022-07-29T06:59:10;17.50;60.70
52963;DHT22;38827;53.024;6.596;2022-07-29T07:01:38;17.60;60.50
52963;DHT22;38827;53.024;6.596;2022-07-29T07:04:04;17.60;60.30
52963;DHT22;38827;53.024;6.596;2022-07-29T07:06:32;17.60;60.20
52963;DHT22;38827;53.024;6.596;2022-07-29T07:08:58;17.70;60.10
52963;DHT22;38827;53.024;6.596;2022-07-29T07:11:24;17.70;60.10
52963;DHT22;38827;53.024;6.596;2022-07-29T07:13:49;17.80;59.80
52963;DHT22;38827;53.024;6.596;2022-07-29T07:16:15;17.90;59.60
52963;DHT22;38827;53.024;6.596;2022-07-29T07:18:41;18.00;59.20
52963;DHT22;38827;53.024;6.596;2022-07-29T07:21:09;18.10;58.80
52963;DHT22;38827;53.024;6.596;2022-07-29T07:23:34;18.20;58.50
52963;DHT22;38827;53.024;6.596;2022-07-29T07:26:00;18.30;58.10
52963;DHT22;38827;53.024;6.596;2022-07-29T07:28:26;18.40;57.80
52963;DHT22;38827;53.024;6.596;2022-07-29T07:30:51;18.30;58.00
52963;DHT22;38827;53.024;6.596;2022-07-29T07:33:17;18.40;58.20
52963;DHT22;38827;53.024;6.596;2022-07-29T07:35:43;18.50;57.80
52963;DHT22;38827;53.024;6.596;2022-07-29T07:38:09;18.50;57.60
52963;DHT22;38827;53.024;6.596;2022-07-29T07:40:35;18.60;57.60
52963;DHT22;38827;53.024;6.596;2022-07-29T07:43:00;18.70;57.30
52963;DHT22;38827;53.024;6.596;2022-07-29T07:45:27;18.70;56.90
52963;DHT22;38827;53.024;6.596;2022-07-29T07:47:53;18.80;56.80
52963;DHT22;38827;53.024;6.596;2022-07-29T07:50:18;18.90;56.70
52963;DHT22;38827;53.024;6.596;2022-07-29T07:52:52;18.90;56.70
52963;DHT22;38827;53.024;6.596;2022-07-29T07:55:18;19.00;56.30
52963;DHT22;38827;53.024;6.596;2022-07-29T07:57:45;19.10;56.50
52963;DHT22;38827;53.024;6.596;2022-07-29T08:00:12;19.20;56.20
52963;DHT22;38827;53.024;6.596;2022-07-29T08:02:39;19.30;55.80
52963;DHT22;38827;53.024;6.596;2022-07-29T08:05:06;19.40;55.20
52963;DHT22;38827;53.024;6.596;2022-07-29T08:07:33;19.40;54.90
52963;DHT22;38827;53.024;6.596;2022-07-29T08:09:58;19.50;54.60
52963;DHT22;38827;53.024;6.596;2022-07-29T08:12:24;19.50;54.60
52963;DHT22;38827;53.024;6.596;2022-07-29T08:14:50;19.60;54.60
52963;DHT22;38827;53.024;6.596;2022-07-29T08:17:15;19.70;54.60
52963;DHT22;38827;53.024;6.596;2022-07-29T08:19:41;19.70;54.40
52963;DHT22;38827;53.024;6.596;2022-07-29T08:22:06;19.80;54.30
52963;DHT22;38827;53.024;6.596;2022-07-29T08:24:38;19.80;54.30
52963;DHT22;38827;53.024;6.596;2022-07-29T08:27:18;19.80;54.20
52963;DHT22;38827;53.024;6.596;2022-07-29T08:29:44;19.80;53.90
52963;DHT22;38827;53.024;6.596;2022-07-29T08:32:10;19.90;53.40
52963;DHT22;38827;53.024;6.596;2022-07-29T08:34:37;19.90;53.50
52963;DHT22;38827;53.024;6.596;2022-07-29T08:37:09;19.90;53.80
52963;DHT22;38827;53.024;6.596;2022-07-29T08:39:35;20.00;53.80
52963;DHT22;38827;53.024;6.596;2022-07-29T08:42:01;20.00;53.80
52963;DHT22;38827;53.024;6.596;2022-07-29T08:44:26;20.00;53.70
52963;DHT22;38827;53.024;6.596;2022-07-29T08:46:52;20.10;53.50
52963;DHT22;38827;53.024;6.596;2022-07-29T08:49:18;20.30;53.30
52963;DHT22;38827;53.024;6.596;2022-07-29T08:51:44;20.40;53.20
52963;DHT22;38827;53.024;6.596;2022-07-29T08:54:25;20.40;52.50
52963;DHT22;38827;53.024;6.596;2022-07-29T08:57:07;20.40;52.50
52963;DHT22;38827;53.024;6.596;2022-07-29T08:59:34;20.40;52.20
52963;DHT22;38827;53.024;6.596;2022-07-29T09:02:35;20.40;52.10
52963;DHT22;38827;53.024;6.596;2022-07-29T09:05:01;20.40;52.00
52963;DHT22;38827;53.024;6.596;2022-07-29T09:07:34;20.40;52.50
52963;DHT22;38827;53.024;6.596;2022-07-29T09:10:01;20.40;52.60
52963;DHT22;38827;53.024;6.596;2022-07-29T09:15:00;20.70;52.20
52963;DHT22;38827;53.024;6.596;2022-07-29T09:21:23;20.90;51.20
52963;DHT22;38827;53.024;6.596;2022-07-29T09:24:22;21.00;51.40
52963;DHT22;38827;53.024;6.596;2022-07-29T09:26:57;21.10;51.20
52963;DHT22;38827;53.024;6.596;2022-07-29T09:29:41;21.20;50.50
52963;DHT22;38827;53.024;6.596;2022-07-29T09:35:21;21.20;50.50
52963;DHT22;38827;53.024;6.596;2022-07-29T09:37:47;21.10;50.90
52963;DHT22;38827;53.024;6.596;2022-07-29T09:40:19;21.10;50.80
52963;DHT22;38827;53.024;6.596;2022-07-29T09:42:48;21.10;50.70
52963;DHT22;38827;53.024;6.596;2022-07-29T09:45:30;21.00;50.80
52963;DHT22;38827;53.024;6.596;2022-07-29T09:47:56;21.00;50.80
52963;DHT22;38827;53.024;6.596;2022-07-29T09:50:41;20.90;50.80
52963;DHT22;38827;53.024;6.596;2022-07-29T09:53:11;20.70;51.00
52963;DHT22;38827;53.024;6.596;2022-07-29T09:55:51;20.60;51.80
52963;DHT22;38827;53.024;6.596;2022-07-29T09:58:19;20.60;52.00
52963;DHT22;38827;53.024;6.596;2022-07-29T10:00:46;20.60;51.70
52963;DHT22;38827;53.024;6.596;2022-07-29T10:03:13;20.50;51.70
52963;DHT22;38827;53.024;6.596;2022-07-29T10:05:38;20.50;51.60
52963;DHT22;38827;53.024;6.596;2022-07-29T10:08:05;20.40;51.90
52963;DHT22;38827;53.024;6.596;2022-07-29T10:10:34;20.50;52.20
52963;DHT22;38827;53.024;6.596;2022-07-29T10:13:01;20.60;52.10
52963;DHT22;38827;53.024;6.596;2022-07-29T10:15:30;20.70;52.30
52963;DHT22;38827;53.024;6.596;2022-07-29T10:17:58;20.80;52.50
52963;DHT22;38827;53.024;6.596;2022-07-29T10:20:24;20.80;52.30
52963;DHT22;38827;53.024;6.596;2022-07-29T10:22:52;20.90;52.20
52963;DHT22;38827;53.024;6.596;2022-07-29T10:25:19;20.90;52.20
52963;DHT22;38827;53.024;6.596;2022-07-29T10:27:46;20.90;52.90
52963;DHT22;38827;53.024;6.596;2022-07-29T10:30:13;20.90;52.90
52963;DHT22;38827;53.024;6.596;2022-07-29T10:44:09;21.20;51.90
52963;DHT22;38827;53.024;6.596;2022-07-29T10:46:39;21.20;52.10
52963;DHT22;38827;53.024;6.596;2022-07-29T10:49:13;21.30;51.90
52963;DHT22;38827;53.024;6.596;2022-07-29T10:51:57;21.30;52.00
52963;DHT22;38827;53.024;6.596;2022-07-29T10:54:44;21.30;51.70
52963;DHT22;38827;53.024;6.596;2022-07-29T10:57:30;21.40;51.10
52963;DHT22;38827;53.024;6.596;2022-07-29T11:05:02;21.80;50.90
52963;DHT22;38827;53.024;6.596;2022-07-29T11:07:29;21.90;50.60
52963;DHT22;38827;53.024;6.596;2022-07-29T11:15:27;22.60;49.50
52963;DHT22;38827;53.024;6.596;2022-07-29T11:23:28;24.10;46.10
52963;DHT22;38827;53.024;6.596;2022-07-29T11:29:02;24.30;45.70
52963;DHT22;38827;53.024;6.596;2022-07-29T11:37:14;26.10;43.80
52963;DHT22;38827;53.024;6.596;2022-07-29T11:45:16;28.90;38.90
52963;DHT22;38827;53.024;6.596;2022-07-29T11:50:13;30.10;37.10
52963;DHT22;38827;53.024;6.596;2022-07-29T11:52:44;30.60;37.10
52963;DHT22;38827;53.024;6.596;2022-07-29T11:55:18;31.10;36.00
52963;DHT22;38827;53.024;6.596;2022-07-29T11:58:01;31.60;35.40
52963;DHT22;38827;53.024;6.596;2022-07-29T12:00:45;31.90;35.20
52963;DHT22;38827;53.024;6.596;2022-07-29T12:03:11;31.70;35.10
52963;DHT22;38827;53.024;6.596;2022-07-29T12:08:40;31.20;34.90
52963;DHT22;38827;53.024;6.596;2022-07-29T12:11:18;30.80;35.10
52963;DHT22;38827;53.024;6.596;2022-07-29T12:13:45;30.20;35.80
52963;DHT22;38827;53.024;6.596;2022-07-29T12:16:10;29.80;36.00
52963;DHT22;38827;53.024;6.596;2022-07-29T12:18:36;29.80;36.10
52963;DHT22;38827;53.024;6.596;2022-07-29T12:21:10;29.60;36.30
52963;DHT22;38827;53.024;6.596;2022-07-29T12:23:58;29.20;36.40
52963;DHT22;38827;53.024;6.596;2022-07-29T12:26:30;28.70;36.90
52963;DHT22;38827;53.024;6.596;2022-07-29T12:28:56;28.30;37.90
52963;DHT22;38827;53.024;6.596;2022-07-29T12:31:24;28.10;38.50
52963;DHT22;38827;53.024;6.596;2022-07-29T12:33:58;28.00;38.70
52963;DHT22;38827;53.024;6.596;2022-07-29T12:36:24;28.00;38.60
52963;DHT22;38827;53.024;6.596;2022-07-29T12:38:50;28.00;38.20
52963;DHT22;38827;53.024;6.596;2022-07-29T12:41:19;28.20;38.20
52963;DHT22;38827;53.024;6.596;2022-07-29T13:06:45;29.30;36.80
52963;DHT22;38827;53.024;6.596;2022-07-29T13:24:07;29.90;35.50
52963;DHT22;38827;53.024;6.596;2022-07-29T13:26:58;29.50;35.70
52963;DHT22;38827;53.024;6.596;2022-07-29T13:36:37;28.10;37.10
52963;DHT22;38827;53.024;6.596;2022-07-29T13:39:36;28.00;37.60
52963;DHT22;38827;53.024;6.596;2022-07-29T13:42:33;28.50;36.60
52963;DHT22;38827;53.024;6.596;2022-07-29T13:44:59;29.20;36.50
52963;DHT22;38827;53.024;6.596;2022-07-29T13:47:25;29.80;35.50
52963;DHT22;38827;53.024;6.596;2022-07-29T13:57:51;29.70;35.60
52963;DHT22;38827;53.024;6.596;2022-07-29T14:01:16;29.60;35.60
52963;DHT22;38827;53.024;6.596;2022-07-29T14:04:10;29.50;36.50
52963;DHT22;38827;53.024;6.596;2022-07-29T14:09:39;29.60;36.30
52963;DHT22;38827;53.024;6.596;2022-07-29T14:12:05;29.60;36.40
52963;DHT22;38827;53.024;6.596;2022-07-29T14:14:31;29.40;36.40
52963;DHT22;38827;53.024;6.596;2022-07-29T14:17:00;29.30;36.70
52963;DHT22;38827;53.024;6.596;2022-07-29T14:19:28;29.30;36.40
52963;DHT22;38827;53.024;6.596;2022-07-29T14:22:05;29.20;36.70
52963;DHT22;38827;53.024;6.596;2022-07-29T14:28:05;29.00;35.90
52963;DHT22;38827;53.024;6.596;2022-07-29T14:33:44;28.60;36.40
52963;DHT22;38827;53.024;6.596;2022-07-29T14:36:10;28.40;37.00
52963;DHT22;38827;53.024;6.596;2022-07-29T14:38:36;28.40;37.10
52963;DHT22;38827;53.024;6.596;2022-07-29T14:41:19;28.40;36.60
52963;DHT22;38827;53.024;6.596;2022-07-29T14:44:28;28.40;36.80
52963;DHT22;38827;53.024;6.596;2022-07-29T14:50:07;28.50;36.80
52963;DHT22;38827;53.024;6.596;2022-07-29T14:59:38;28.30;36.80
52963;DHT22;38827;53.024;6.596;2022-07-29T15:02:04;28.20;36.70
52963;DHT22;38827;53.024;6.596;2022-07-29T15:04:30;28.10;37.10
52963;DHT22;38827;53.024;6.596;2022-07-29T15:06:56;28.20;36.90
52963;DHT22;38827;53.024;6.596;2022-07-29T15:09:21;28.30;36.70
52963;DHT22;38827;53.024;6.596;2022-07-29T15:11:47;28.40;36.80
52963;DHT22;38827;53.024;6.596;2022-07-29T15:14:12;28.40;36.30
52963;DHT22;38827;53.024;6.596;2022-07-29T15:16:43;28.40;36.40
52963;DHT22;38827;53.024;6.596;2022-07-29T15:19:10;28.30;36.20
52963;DHT22;38827;53.024;6.596;2022-07-29T15:21:35;28.20;36.20
52963;DHT22;38827;53.024;6.596;2022-07-29T15:24:01;28.10;36.20
52963;DHT22;38827;53.024;6.596;2022-07-29T15:26:27;28.10;36.30
52963;DHT22;38827;53.024;6.596;2022-07-29T15:28:52;28.00;36.30
52963;DHT22;38827;53.024;6.596;2022-07-29T15:31:18;27.90;36.50
52963;DHT22;38827;53.024;6.596;2022-07-29T15:33:44;27.80;37.00
52963;DHT22;38827;53.024;6.596;2022-07-29T15:36:10;27.80;37.00
52963;DHT22;38827;53.024;6.596;2022-07-29T15:38:38;27.70;36.80
52963;DHT22;38827;53.024;6.596;2022-07-29T15:41:06;27.60;37.60
52963;DHT22;38827;53.024;6.596;2022-07-29T15:43:32;27.40;38.10
52963;DHT22;38827;53.024;6.596;2022-07-29T15:46:00;27.30;37.90
52963;DHT22;38827;53.024;6.596;2022-07-29T15:48:45;27.30;38.10
52963;DHT22;38827;53.024;6.596;2022-07-29T15:51:11;27.20;38.30
52963;DHT22;38827;53.024;6.596;2022-07-29T15:53:36;27.20;38.10
52963;DHT22;38827;53.024;6.596;2022-07-29T15:56:02;27.10;38.50
52963;DHT22;38827;53.024;6.596;2022-07-29T15:58:29;27.00;38.70
52963;DHT22;38827;53.024;6.596;2022-07-29T16:00:54;27.00;38.70
52963;DHT22;38827;53.024;6.596;2022-07-29T16:03:20;26.90;38.70
52963;DHT22;38827;53.024;6.596;2022-07-29T16:05:47;26.80;38.50
52963;DHT22;38827;53.024;6.596;2022-07-29T16:08:13;26.70;38.30
52963;DHT22;38827;53.024;6.596;2022-07-29T16:10:38;26.60;38.90
52963;DHT22;38827;53.024;6.596;2022-07-29T16:13:04;26.50;38.90
52963;DHT22;38827;53.024;6.596;2022-07-29T16:15:30;26.50;38.60
52963;DHT22;38827;53.024;6.596;2022-07-29T16:17:55;26.40;38.50
52963;DHT22;38827;53.024;6.596;2022-07-29T16:20:21;26.40;38.60
52963;DHT22;38827;53.024;6.596;2022-07-29T16:22:47;26.30;38.80
52963;DHT22;38827;53.024;6.596;2022-07-29T16:25:12;26.20;39.20
52963;DHT22;38827;53.024;6.596;2022-07-29T16:27:38;26.20;38.90
52963;DHT22;38827;53.024;6.596;2022-07-29T16:30:05;26.10;38.40
52963;DHT22;38827;53.024;6.596;2022-07-29T16:32:32;26.00;39.00
52963;DHT22;38827;53.024;6.596;2022-07-29T16:34:57;25.90;39.30
52963;DHT22;38827;53.024;6.596;2022-07-29T16:37:26;25.90;39.50
52963;DHT22;38827;53.024;6.596;2022-07-29T16:39:57;25.90;39.20
52963;DHT22;38827;53.024;6.596;2022-07-29T16:42:23;25.90;39.40
52963;DHT22;38827;53.024;6.596;2022-07-29T16:44:49;25.80;39.30
52963;DHT22;38827;53.024;6.596;2022-07-29T16:47:14;25.80;38.80
52963;DHT22;38827;53.024;6.596;2022-07-29T16:49:40;25.70;39.00
52963;DHT22;38827;53.024;6.596;2022-07-29T16:52:06;25.60;39.30
52963;DHT22;38827;53.024;6.596;2022-07-29T16:54:32;25.60;39.10
52963;DHT22;38827;53.024;6.596;2022-07-29T16:56:57;25.50;39.00
52963;DHT22;38827;53.024;6.596;2022-07-29T16:59:28;25.50;39.10
52963;DHT22;38827;53.024;6.596;2022-07-29T17:01:54;25.40;38.90
52963;DHT22;38827;53.024;6.596;2022-07-29T17:04:20;25.30;38.80
52963;DHT22;38827;53.024;6.596;2022-07-29T17:06:46;25.20;38.80
52963;DHT22;38827;53.024;6.596;2022-07-29T17:09:13;25.10;38.70
52963;DHT22;38827;53.024;6.596;2022-07-29T17:11:41;25.00;38.50
52963;DHT22;38827;53.024;6.596;2022-07-29T17:14:07;25.00;38.90
52963;DHT22;38827;53.024;6.596;2022-07-29T17:16:34;24.90;39.30
52963;DHT22;38827;53.024;6.596;2022-07-29T17:18:59;24.90;39.20
52963;DHT22;38827;53.024;6.596;2022-07-29T17:21:25;24.80;39.30
52963;DHT22;38827;53.024;6.596;2022-07-29T17:23:51;24.70;39.50
52963;DHT22;38827;53.024;6.596;2022-07-29T17:26:18;24.70;39.40
52963;DHT22;38827;53.024;6.596;2022-07-29T17:28:44;24.60;39.40
52963;DHT22;38827;53.024;6.596;2022-07-29T17:31:10;24.60;39.70
52963;DHT22;38827;53.024;6.596;2022-07-29T17:33:36;24.50;40.20
52963;DHT22;38827;53.024;6.596;2022-07-29T17:36:01;24.50;40.60
52963;DHT22;38827;53.024;6.596;2022-07-29T17:38:46;24.40;41.10
52963;DHT22;38827;53.024;6.596;2022-07-29T17:41:11;24.30;41.80
52963;DHT22;38827;53.024;6.596;2022-07-29T17:43:37;24.20;42.00
52963;DHT22;38827;53.024;6.596;2022-07-29T17:46:03;24.10;42.20
52963;DHT22;38827;53.024;6.596;2022-07-29T17:48:29;24.10;42.50
52963;DHT22;38827;53.024;6.596;2022-07-29T17:50:55;24.00;42.90
52963;DHT22;38827;53.024;6.596;2022-07-29T17:53:21;23.90;43.30
52963;DHT22;38827;53.024;6.596;2022-07-29T17:55:51;23.80;43.50
52963;DHT22;38827;53.024;6.596;2022-07-29T17:58:16;23.70;43.80